sensor_id;sensor_type;location;lat;lon;timestamp;temperature;humidity
76099;DHT22;64828;49.956;8.636;2023-10-09T00:00:14;12.30;92.40
76099;DHT22;64828;49.956;8.636;2023-10-09T00:00:51;12.30;92.30
76099;DHT22;64828;49.956;8.636;2023-10-09T00:01:11;12.30;92.30
76099;DHT22;64828;49.956;8.636;2023-10-09T00:01:30;12.30;92.30
76099;DHT22;64828;49.956;8.636;2023-10-09T00:01:47;12.30;92.40
76099;DHT22;64828;49.956;8.636;2023-10-09T00:02:03;12.30;92.30
76099;DHT22;64828;49.956;8.636;2023-10-09T00:02:22;12.30;92.30
76099;DHT22;64828;49.956;8.636;2023-10-09T00:02:38;12.30;92.30
76099;DHT22;64828;49.956;8.636;2023-10-09T00:02:55;12.30;92.30
76099;DHT22;64828;49.956;8.636;2023-10-09T00:03:10;12.30;92.20
76099;DHT22;64828;49.956;8.636;2023-10-09T00:03:28;12.30;92.20
76099;DHT22;64828;49.956;8.636;2023-10-09T00:03:47;12.30;92.20
76099;DHT22;64828;49.956;8.636;2023-10-09T00:04:10;12.30;92.20
76099;DHT22;64828;49.956;8.636;2023-10-09T00:04:26;12.40;92.20
76099;DHT22;64828;49.956;8.636;2023-10-09T00:04:42;12.30;92.20
76099;DHT22;64828;49.956;8.636;2023-10-09T00:05:00;12.30;92.20
76099;DHT22;64828;49.956;8.636;2023-10-09T00:05:17;12.30;92.20
76099;DHT22;64828;49.956;8.636;2023-10-09T00:05:39;12.30;92.10
76099;DHT22;64828;49.956;8.636;2023-10-09T00:06:01;12.30;92.10
76099;DHT22;64828;49.956;8.636;2023-10-09T00:06:18;12.40;92.10
76099;DHT22;64828;49.956;8.636;2023-10-09T00:06:39;12.30;92.00
76099;DHT22;64828;49.956;8.636;2023-10-09T00:06:57;12.30;92.00
76099;DHT22;64828;49.956;8.636;2023-10-09T00:07:14;12.30;92.00
76099;DHT22;64828;49.956;8.636;2023-10-09T00:07:32;12.30;92.00
76099;DHT22;64828;49.956;8.636;2023-10-09T00:07:50;12.40;91.90
76099;DHT22;64828;49.956;8.636;2023-10-09T00:08:15;12.30;91.90
76099;DHT22;64828;49.956;8.636;2023-10-09T00:08:37;12.30;91.90
76099;DHT22;64828;49.956;8.636;2023-10-09T00:08:54;12.30;91.80
76099;DHT22;64828;49.956;8.636;2023-10-09T00:09:10;12.30;91.80
76099;DHT22;64828;49.956;8.636;2023-10-09T00:09:49;12.40;91.80
76099;DHT22;64828;49.956;8.636;2023-10-09T00:10:06;12.40;91.80
76099;DHT22;64828;49.956;8.636;2023-10-09T00:10:28;12.40;91.80
76099;DHT22;64828;49.956;8.636;2023-10-09T00:10:52;12.30;91.80
76099;DHT22;64828;49.956;8.636;2023-10-09T00:11:10;12.40;91.80
76099;DHT22;64828;49.956;8.636;2023-10-09T00:11:32;12.40;91.70
76099;DHT22;64828;49.956;8.636;2023-10-09T00:11:53;12.30;91.70
76099;DHT22;64828;49.956;8.636;2023-10-09T00:12:19;12.30;91.60
76099;DHT22;64828;49.956;8.636;2023-10-09T00:12:38;12.40;91.50
76099;DHT22;64828;49.956;8.636;2023-10-09T00:12:53;12.30;91.50
76099;DHT22;64828;49.956;8.636;2023-10-09T00:13:09;12.30;91.40
76099;DHT22;64828;49.956;8.636;2023-10-09T00:13:25;12.30;91.40
76099;DHT22;64828;49.956;8.636;2023-10-09T00:13:48;12.30;91.40
76099;DHT22;64828;49.956;8.636;2023-10-09T00:14:07;12.30;91.40
76099;DHT22;64828;49.956;8.636;2023-10-09T00:14:27;12.30;91.30
76099;DHT22;64828;49.956;8.636;2023-10-09T00:14:45;12.30;91.20
76099;DHT22;64828;49.956;8.636;2023-10-09T00:15:03;12.30;91.20
76099;DHT22;64828;49.956;8.636;2023-10-09T00:15:23;12.30;91.20
76099;DHT22;64828;49.956;8.636;2023-10-09T00:15:42;12.30;91.20
76099;DHT22;64828;49.956;8.636;2023-10-09T00:16:04;12.30;91.30
76099;DHT22;64828;49.956;8.636;2023-10-09T00:16:29;12.30;91.30
76099;DHT22;64828;49.956;8.636;2023-10-09T00:16:52;12.30;91.30
76099;DHT22;64828;49.956;8.636;2023-10-09T00:17:26;12.30;91.30
76099;DHT22;64828;49.956;8.636;2023-10-09T00:17:46;12.30;91.30
76099;DHT22;64828;49.956;8.636;2023-10-09T00:18:04;12.30;91.30
76099;DHT22;64828;49.956;8.636;2023-10-09T00:18:20;12.30;91.30
76099;DHT22;64828;49.956;8.636;2023-10-09T00:18:44;12.30;91.30
76099;DHT22;64828;49.956;8.636;2023-10-09T00:19:03;12.30;91.30
76099;DHT22;64828;49.956;8.636;2023-10-09T00:19:38;12.30;91.20
76099;DHT22;64828;49.956;8.636;2023-10-09T00:19:53;12.20;91.20
76099;DHT22;64828;49.956;8.636;2023-10-09T00:20:15;12.20;91.20
76099;DHT22;64828;49.956;8.636;2023-10-09T00:20:36;12.30;91.20
76099;DHT22;64828;49.956;8.636;2023-10-09T00:20:57;12.30;91.20
76099;DHT22;64828;49.956;8.636;2023-10-09T00:21:26;12.30;91.20
76099;DHT22;64828;49.956;8.636;2023-10-09T00:21:50;12.30;91.20
76099;DHT22;64828;49.956;8.636;2023-10-09T00:22:05;12.30;91.20
76099;DHT22;64828;49.956;8.636;2023-10-09T00:22:25;12.30;91.20
76099;DHT22;64828;49.956;8.636;2023-10-09T00:22:41;12.30;91.20
76099;DHT22;64828;49.956;8.636;2023-10-09T00:23:01;12.20;91.20
76099;DHT22;64828;49.956;8.636;2023-10-09T00:23:16;12.30;91.20
76099;DHT22;64828;49.956;8.636;2023-10-09T00:23:32;12.30;91.20
76099;DHT22;64828;49.956;8.636;2023-10-09T00:23:49;12.30;91.20
76099;DHT22;64828;49.956;8.636;2023-10-09T00:24:14;12.20;91.20
76099;DHT22;64828;49.956;8.636;2023-10-09T00:24:39;12.30;91.30
76099;DHT22;64828;49.956;8.636;2023-10-09T00:25:01;12.20;91.30
76099;DHT22;64828;49.956;8.636;2023-10-09T00:25:25;12.20;91.30
76099;DHT22;64828;49.956;8.636;2023-10-09T00:25:49;12.30;91.40
76099;DHT22;64828;49.956;8.636;2023-10-09T00:26:22;12.30;91.40
76099;DHT22;64828;49.956;8.636;2023-10-09T00:26:44;12.30;91.40
76099;DHT22;64828;49.956;8.636;2023-10-09T00:27:04;12.30;91.40
76099;DHT22;64828;49.956;8.636;2023-10-09T00:27:34;12.20;91.40
76099;DHT22;64828;49.956;8.636;2023-10-09T00:27:52;12.20;91.30
76099;DHT22;64828;49.956;8.636;2023-10-09T00:28:07;12.20;91.30
76099;DHT22;64828;49.956;8.636;2023-10-09T00:28:25;12.20;91.30
76099;DHT22;64828;49.956;8.636;2023-10-09T00:28:41;12.20;91.30
76099;DHT22;64828;49.956;8.636;2023-10-09T00:28:58;12.20;91.30
76099;DHT22;64828;49.956;8.636;2023-10-09T00:29:15;12.20;91.30
76099;DHT22;64828;49.956;8.636;2023-10-09T00:29:37;12.20;91.30
76099;DHT22;64828;49.956;8.636;2023-10-09T00:29:59;12.20;91.30
76099;DHT22;64828;49.956;8.636;2023-10-09T00:30:16;12.20;91.30
76099;DHT22;64828;49.956;8.636;2023-10-09T00:30:41;12.20;91.30
76099;DHT22;64828;49.956;8.636;2023-10-09T00:30:57;12.30;91.30
76099;DHT22;64828;49.956;8.636;2023-10-09T00:31:15;12.20;91.30
76099;DHT22;64828;49.956;8.636;2023-10-09T00:31:31;12.20;91.30
76099;DHT22;64828;49.956;8.636;2023-10-09T00:31:50;12.20;91.30
76099;DHT22;64828;49.956;8.636;2023-10-09T00:32:10;12.20;91.30
76099;DHT22;64828;49.956;8.636;2023-10-09T00:32:31;12.30;91.30
76099;DHT22;64828;49.956;8.636;2023-10-09T00:32:49;12.30;91.40
76099;DHT22;64828;49.956;8.636;2023-10-09T00:33:13;12.20;91.40
76099;DHT22;64828;49.956;8.636;2023-10-09T00:33:28;12.20;91.40
76099;DHT22;64828;49.956;8.636;2023-10-09T00:33:45;12.30;91.50
76099;DHT22;64828;49.956;8.636;2023-10-09T00:34:01;12.30;91.50
76099;DHT22;64828;49.956;8.636;2023-10-09T00:34:33;12.30;91.50
76099;DHT22;64828;49.956;8.636;2023-10-09T00:34:54;12.30;91.50
76099;DHT22;64828;49.956;8.636;2023-10-09T00:35:13;12.30;91.60
76099;DHT22;64828;49.956;8.636;2023-10-09T00:35:49;12.30;91.60
76099;DHT22;64828;49.956;8.636;2023-10-09T00:36:09;12.20;91.60
76099;DHT22;64828;49.956;8.636;2023-10-09T00:36:25;12.20;91.60
76099;DHT22;64828;49.956;8.636;2023-10-09T00:36:44;12.20;91.60
76099;DHT22;64828;49.956;8.636;2023-10-09T00:37:10;12.30;91.60
76099;DHT22;64828;49.956;8.636;2023-10-09T00:37:31;12.30;91.50
76099;DHT22;64828;49.956;8.636;2023-10-09T00:37:49;12.30;91.60
76099;DHT22;64828;49.956;8.636;2023-10-09T00:38:07;12.30;91.50
76099;DHT22;64828;49.956;8.636;2023-10-09T00:38:46;12.20;91.50
76099;DHT22;64828;49.956;8.636;2023-10-09T00:39:04;12.20;91.40
76099;DHT22;64828;49.956;8.636;2023-10-09T00:39:33;12.20;91.40
76099;DHT22;64828;49.956;8.636;2023-10-09T00:39:52;12.20;91.30
76099;DHT22;64828;49.956;8.636;2023-10-09T00:40:12;12.20;91.30
76099;DHT22;64828;49.956;8.636;2023-10-09T00:40:35;12.20;91.20
76099;DHT22;64828;49.956;8.636;2023-10-09T00:41:00;12.20;91.20
76099;DHT22;64828;49.956;8.636;2023-10-09T00:41:22;12.20;91.20
76099;DHT22;64828;49.956;8.636;2023-10-09T00:41:40;12.20;91.30
76099;DHT22;64828;49.956;8.636;2023-10-09T00:41:57;12.20;91.30
76099;DHT22;64828;49.956;8.636;2023-10-09T00:42:14;12.20;91.30
76099;DHT22;64828;49.956;8.636;2023-10-09T00:42:42;12.20;91.20
76099;DHT22;64828;49.956;8.636;2023-10-09T00:42:59;12.20;91.30
76099;DHT22;64828;49.956;8.636;2023-10-09T00:43:21;12.20;91.20
76099;DHT22;64828;49.956;8.636;2023-10-09T00:43:43;12.20;91.20
76099;DHT22;64828;49.956;8.636;2023-10-09T00:43:59;12.20;91.20
76099;DHT22;64828;49.956;8.636;2023-10-09T00:44:14;12.20;91.20
76099;DHT22;64828;49.956;8.636;2023-10-09T00:44:30;12.20;91.10
76099;DHT22;64828;49.956;8.636;2023-10-09T00:44:54;12.20;91.10
76099;DHT22;64828;49.956;8.636;2023-10-09T00:45:09;12.20;91.10
76099;DHT22;64828;49.956;8.636;2023-10-09T00:45:31;12.20;91.10
76099;DHT22;64828;49.956;8.636;2023-10-09T00:45:47;12.20;91.10
76099;DHT22;64828;49.956;8.636;2023-10-09T00:46:07;12.20;91.10
76099;DHT22;64828;49.956;8.636;2023-10-09T00:46:39;12.20;91.10
76099;DHT22;64828;49.956;8.636;2023-10-09T00:46:58;12.20;91.20
76099;DHT22;64828;49.956;8.636;2023-10-09T00:47:23;12.20;91.10
76099;DHT22;64828;49.956;8.636;2023-10-09T00:47:42;12.20;91.10
76099;DHT22;64828;49.956;8.636;2023-10-09T00:47:59;12.20;91.10
76099;DHT22;64828;49.956;8.636;2023-10-09T00:48:18;12.20;91.10
76099;DHT22;64828;49.956;8.636;2023-10-09T00:48:47;12.20;91.10
76099;DHT22;64828;49.956;8.636;2023-10-09T00:49:04;12.30;91.20
76099;DHT22;64828;49.956;8.636;2023-10-09T00:49:25;12.20;91.30
76099;DHT22;64828;49.956;8.636;2023-10-09T00:49:42;12.30;91.40
76099;DHT22;64828;49.956;8.636;2023-10-09T00:50:02;12.20;91.50
76099;DHT22;64828;49.956;8.636;2023-10-09T00:50:36;12.20;91.50
76099;DHT22;64828;49.956;8.636;2023-10-09T00:50:53;12.30;91.70
76099;DHT22;64828;49.956;8.636;2023-10-09T00:51:09;12.30;91.70
76099;DHT22;64828;49.956;8.636;2023-10-09T00:51:34;12.30;91.80
76099;DHT22;64828;49.956;8.636;2023-10-09T00:51:51;12.30;91.90
76099;DHT22;64828;49.956;8.636;2023-10-09T00:52:11;12.30;91.90
76099;DHT22;64828;49.956;8.636;2023-10-09T00:52:33;12.30;91.90
76099;DHT22;64828;49.956;8.636;2023-10-09T00:53:06;12.30;92.00
76099;DHT22;64828;49.956;8.636;2023-10-09T00:53:27;12.30;92.00
76099;DHT22;64828;49.956;8.636;2023-10-09T00:53:49;12.30;92.00
76099;DHT22;64828;49.956;8.636;2023-10-09T00:54:09;12.30;92.00
76099;DHT22;64828;49.956;8.636;2023-10-09T00:54:34;12.30;91.90
76099;DHT22;64828;49.956;8.636;2023-10-09T00:54:57;12.30;91.90
76099;DHT22;64828;49.956;8.636;2023-10-09T00:55:20;12.20;91.80
76099;DHT22;64828;49.956;8.636;2023-10-09T00:56:04;12.20;91.70
76099;DHT22;64828;49.956;8.636;2023-10-09T00:56:44;12.20;91.60
76099;DHT22;64828;49.956;8.636;2023-10-09T00:57:07;12.20;91.60
76099;DHT22;64828;49.956;8.636;2023-10-09T00:57:23;12.20;91.50
76099;DHT22;64828;49.956;8.636;2023-10-09T00:57:44;12.20;91.50
76099;DHT22;64828;49.956;8.636;2023-10-09T00:58:06;12.20;91.50
76099;DHT22;64828;49.956;8.636;2023-10-09T00:58:30;12.20;91.40
76099;DHT22;64828;49.956;8.636;2023-10-09T00:58:48;12.20;91.40
76099;DHT22;64828;49.956;8.636;2023-10-09T00:59:15;12.20;91.40
76099;DHT22;64828;49.956;8.636;2023-10-09T00:59:35;12.20;91.40
76099;DHT22;64828;49.956;8.636;2023-10-09T00:59:54;12.20;91.50
76099;DHT22;64828;49.956;8.636;2023-10-09T01:00:14;12.30;91.50
76099;DHT22;64828;49.956;8.636;2023-10-09T01:00:47;12.20;91.60
76099;DHT22;64828;49.956;8.636;2023-10-09T01:01:05;12.30;91.70
76099;DHT22;64828;49.956;8.636;2023-10-09T01:01:31;12.20;91.70
76099;DHT22;64828;49.956;8.636;2023-10-09T01:01:51;12.30;91.70
76099;DHT22;64828;49.956;8.636;2023-10-09T01:02:22;12.30;91.90
76099;DHT22;64828;49.956;8.636;2023-10-09T01:02:50;12.30;92.00
76099;DHT22;64828;49.956;8.636;2023-10-09T01:03:25;12.30;92.10
76099;DHT22;64828;49.956;8.636;2023-10-09T01:03:42;12.30;92.20
76099;DHT22;64828;49.956;8.636;2023-10-09T01:04:03;12.30;92.30
76099;DHT22;64828;49.956;8.636;2023-10-09T01:04:25;12.40;92.40
76099;DHT22;64828;49.956;8.636;2023-10-09T01:04:43;12.40;92.40
76099;DHT22;64828;49.956;8.636;2023-10-09T01:05:00;12.40;92.40
76099;DHT22;64828;49.956;8.636;2023-10-09T01:05:25;12.40;92.50
76099;DHT22;64828;49.956;8.636;2023-10-09T01:05:43;12.40;92.50
76099;DHT22;64828;49.956;8.636;2023-10-09T01:06:13;12.40;92.50
76099;DHT22;64828;49.956;8.636;2023-10-09T01:06:29;12.40;92.50
76099;DHT22;64828;49.956;8.636;2023-10-09T01:06:48;12.40;92.50
76099;DHT22;64828;49.956;8.636;2023-10-09T01:07:19;12.40;92.50
76099;DHT22;64828;49.956;8.636;2023-10-09T01:07:41;12.40;92.50
76099;DHT22;64828;49.956;8.636;2023-10-09T01:07:59;12.40;92.50
76099;DHT22;64828;49.956;8.636;2023-10-09T01:08:15;12.40;92.50
76099;DHT22;64828;49.956;8.636;2023-10-09T01:08:32;12.40;92.50
76099;DHT22;64828;49.956;8.636;2023-10-09T01:08:56;12.40;92.50
76099;DHT22;64828;49.956;8.636;2023-10-09T01:09:24;12.40;92.50
76099;DHT22;64828;49.956;8.636;2023-10-09T01:09:39;12.40;92.50
76099;DHT22;64828;49.956;8.636;2023-10-09T01:09:58;12.40;92.50
76099;DHT22;64828;49.956;8.636;2023-10-09T01:10:25;12.40;92.50
76099;DHT22;64828;49.956;8.636;2023-10-09T01:10:49;12.40;92.50
76099;DHT22;64828;49.956;8.636;2023-10-09T01:11:24;12.40;92.50
76099;DHT22;64828;49.956;8.636;2023-10-09T01:11:45;12.50;92.50
76099;DHT22;64828;49.956;8.636;2023-10-09T01:12:04;12.50;92.40
76099;DHT22;64828;49.956;8.636;2023-10-09T01:12:20;12.40;92.40
76099;DHT22;64828;49.956;8.636;2023-10-09T01:12:36;12.50;92.40
76099;DHT22;64828;49.956;8.636;2023-10-09T01:12:58;12.50;92.40
76099;DHT22;64828;49.956;8.636;2023-10-09T01:13:14;12.50;92.40
76099;DHT22;64828;49.956;8.636;2023-10-09T01:13:33;12.40;92.40
76099;DHT22;64828;49.956;8.636;2023-10-09T01:14:07;12.50;92.40
76099;DHT22;64828;49.956;8.636;2023-10-09T01:14:23;12.50;92.40
76099;DHT22;64828;49.956;8.636;2023-10-09T01:14:38;12.50;92.40
76099;DHT22;64828;49.956;8.636;2023-10-09T01:14:56;12.50;92.40
76099;DHT22;64828;49.956;8.636;2023-10-09T01:15:15;12.50;92.40
76099;DHT22;64828;49.956;8.636;2023-10-09T01:15:50;12.50;92.40
76099;DHT22;64828;49.956;8.636;2023-10-09T01:16:07;12.50;92.40
76099;DHT22;64828;49.956;8.636;2023-10-09T01:16:32;12.50;92.40
76099;DHT22;64828;49.956;8.636;2023-10-09T01:16:48;12.50;92.40
76099;DHT22;64828;49.956;8.636;2023-10-09T01:17:04;12.40;92.40
76099;DHT22;64828;49.956;8.636;2023-10-09T01:17:40;12.50;92.40
76099;DHT22;64828;49.956;8.636;2023-10-09T01:18:02;12.50;92.40
76099;DHT22;64828;49.956;8.636;2023-10-09T01:18:20;12.50;92.40
76099;DHT22;64828;49.956;8.636;2023-10-09T01:18:35;12.50;92.30
76099;DHT22;64828;49.956;8.636;2023-10-09T01:18:55;12.50;92.30
76099;DHT22;64828;49.956;8.636;2023-10-09T01:19:14;12.50;92.30
76099;DHT22;64828;49.956;8.636;2023-10-09T01:19:39;12.50;92.30
76099;DHT22;64828;49.956;8.636;2023-10-09T01:19:54;12.50;92.40
76099;DHT22;64828;49.956;8.636;2023-10-09T01:20:12;12.50;92.40
76099;DHT22;64828;49.956;8.636;2023-10-09T01:20:32;12.50;92.40
76099;DHT22;64828;49.956;8.636;2023-10-09T01:20:56;12.50;92.40
76099;DHT22;64828;49.956;8.636;2023-10-09T01:21:12;12.50;92.40
76099;DHT22;64828;49.956;8.636;2023-10-09T01:21:28;12.50;92.40
76099;DHT22;64828;49.956;8.636;2023-10-09T01:21:47;12.50;92.40
76099;DHT22;64828;49.956;8.636;2023-10-09T01:22:03;12.50;92.40
76099;DHT22;64828;49.956;8.636;2023-10-09T01:22:28;12.50;92.40
76099;DHT22;64828;49.956;8.636;2023-10-09T01:22:44;12.50;92.40
76099;DHT22;64828;49.956;8.636;2023-10-09T01:23:03;12.50;92.40
76099;DHT22;64828;49.956;8.636;2023-10-09T01:23:18;12.50;92.40
76099;DHT22;64828;49.956;8.636;2023-10-09T01:23:34;12.50;92.30
76099;DHT22;64828;49.956;8.636;2023-10-09T01:23:50;12.50;92.40
76099;DHT22;64828;49.956;8.636;2023-10-09T01:24:19;12.50;92.40
76099;DHT22;64828;49.956;8.636;2023-10-09T01:24:35;12.50;92.40
76099;DHT22;64828;49.956;8.636;2023-10-09T01:24:54;12.50;92.40
76099;DHT22;64828;49.956;8.636;2023-10-09T01:25:11;12.50;92.40
76099;DHT22;64828;49.956;8.636;2023-10-09T01:25:26;12.50;92.40
76099;DHT22;64828;49.956;8.636;2023-10-09T01:25:56;12.50;92.40
76099;DHT22;64828;49.956;8.636;2023-10-09T01:26:12;12.50;92.40
76099;DHT22;64828;49.956;8.636;2023-10-09T01:26:35;12.50;92.40
76099;DHT22;64828;49.956;8.636;2023-10-09T01:26:59;12.50;92.40
76099;DHT22;64828;49.956;8.636;2023-10-09T01:27:15;12.50;92.40
76099;DHT22;64828;49.956;8.636;2023-10-09T01:27:30;12.50;92.40
76099;DHT22;64828;49.956;8.636;2023-10-09T01:27:47;12.50;92.40
76099;DHT22;64828;49.956;8.636;2023-10-09T01:28:03;12.50;92.40
76099;DHT22;64828;49.956;8.636;2023-10-09T01:28:19;12.50;92.40
76099;DHT22;64828;49.956;8.636;2023-10-09T01:28:34;12.50;92.40
76099;DHT22;64828;49.956;8.636;2023-10-09T01:28:50;12.50;92.40
76099;DHT22;64828;49.956;8.636;2023-10-09T01:29:06;12.50;92.40
76099;DHT22;64828;49.956;8.636;2023-10-09T01:29:33;12.50;92.30
76099;DHT22;64828;49.956;8.636;2023-10-09T01:29:50;12.50;92.30
76099;DHT22;64828;49.956;8.636;2023-10-09T01:30:07;12.50;92.30
76099;DHT22;64828;49.956;8.636;2023-10-09T01:30:29;12.50;92.30
76099;DHT22;64828;49.956;8.636;2023-10-09T01:30:44;12.50;92.40
76099;DHT22;64828;49.956;8.636;2023-10-09T01:31:02;12.50;92.30
76099;DHT22;64828;49.956;8.636;2023-10-09T01:31:18;12.50;92.40
76099;DHT22;64828;49.956;8.636;2023-10-09T01:31:36;12.50;92.30
76099;DHT22;64828;49.956;8.636;2023-10-09T01:31:59;12.50;92.30
76099;DHT22;64828;49.956;8.636;2023-10-09T01:32:18;12.50;92.30
76099;DHT22;64828;49.956;8.636;2023-10-09T01:32:37;12.50;92.30
76099;DHT22;64828;49.956;8.636;2023-10-09T01:32:52;12.50;92.30
76099;DHT22;64828;49.956;8.636;2023-10-09T01:33:09;12.50;92.30
76099;DHT22;64828;49.956;8.636;2023-10-09T01:33:37;12.50;92.30
76099;DHT22;64828;49.956;8.636;2023-10-09T01:33:53;12.50;92.30
76099;DHT22;64828;49.956;8.636;2023-10-09T01:34:14;12.50;92.30
76099;DHT22;64828;49.956;8.636;2023-10-09T01:34:34;12.50;92.30
76099;DHT22;64828;49.956;8.636;2023-10-09T01:34:59;12.50;92.30
76099;DHT22;64828;49.956;8.636;2023-10-09T01:35:15;12.50;92.30
76099;DHT22;64828;49.956;8.636;2023-10-09T01:35:36;12.50;92.30
76099;DHT22;64828;49.956;8.636;2023-10-09T01:35:53;12.50;92.30
76099;DHT22;64828;49.956;8.636;2023-10-09T01:36:14;12.60;92.30
76099;DHT22;64828;49.956;8.636;2023-10-09T01:36:30;12.50;92.30
76099;DHT22;64828;49.956;8.636;2023-10-09T01:36:52;12.50;92.30
76099;DHT22;64828;49.956;8.636;2023-10-09T01:37:12;12.50;92.30
76099;DHT22;64828;49.956;8.636;2023-10-09T01:37:40;12.50;92.40
76099;DHT22;64828;49.956;8.636;2023-10-09T01:37:58;12.50;92.30
76099;DHT22;64828;49.956;8.636;2023-10-09T01:38:15;12.60;92.30
76099;DHT22;64828;49.956;8.636;2023-10-09T01:38:31;12.60;92.40
76099;DHT22;64828;49.956;8.636;2023-10-09T01:38:55;12.60;92.40
76099;DHT22;64828;49.956;8.636;2023-10-09T01:39:11;12.50;92.40
76099;DHT22;64828;49.956;8.636;2023-10-09T01:39:41;12.60;92.40
76099;DHT22;64828;49.956;8.636;2023-10-09T01:39:58;12.50;92.40
76099;DHT22;64828;49.956;8.636;2023-10-09T01:40:15;12.50;92.40
76099;DHT22;64828;49.956;8.636;2023-10-09T01:40:42;12.50;92.40
76099;DHT22;64828;49.956;8.636;2023-10-09T01:40:59;12.50;92.30
76099;DHT22;64828;49.956;8.636;2023-10-09T01:41:22;12.50;92.30
76099;DHT22;64828;49.956;8.636;2023-10-09T01:41:37;12.60;92.20
76099;DHT22;64828;49.956;8.636;2023-10-09T01:42:02;12.50;92.20
76099;DHT22;64828;49.956;8.636;2023-10-09T01:42:21;12.50;92.20
76099;DHT22;64828;49.956;8.636;2023-10-09T01:42:45;12.60;92.20
76099;DHT22;64828;49.956;8.636;2023-10-09T01:43:00;12.60;92.20
76099;DHT22;64828;49.956;8.636;2023-10-09T01:43:19;12.60;92.20
76099;DHT22;64828;49.956;8.636;2023-10-09T01:43:36;12.60;92.20
76099;DHT22;64828;49.956;8.636;2023-10-09T01:43:54;12.60;92.20
76099;DHT22;64828;49.956;8.636;2023-10-09T01:44:16;12.50;92.30
76099;DHT22;64828;49.956;8.636;2023-10-09T01:44:32;12.50;92.30
76099;DHT22;64828;49.956;8.636;2023-10-09T01:44:53;12.50;92.30
76099;DHT22;64828;49.956;8.636;2023-10-09T01:45:09;12.60;92.30
76099;DHT22;64828;49.956;8.636;2023-10-09T01:45:31;12.60;92.30
76099;DHT22;64828;49.956;8.636;2023-10-09T01:45:57;12.60;92.30
76099;DHT22;64828;49.956;8.636;2023-10-09T01:46:16;12.60;92.30
76099;DHT22;64828;49.956;8.636;2023-10-09T01:46:35;12.50;92.30
76099;DHT22;64828;49.956;8.636;2023-10-09T01:46:50;12.60;92.30
76099;DHT22;64828;49.956;8.636;2023-10-09T01:47:10;12.60;92.30
76099;DHT22;64828;49.956;8.636;2023-10-09T01:47:34;12.60;92.30
76099;DHT22;64828;49.956;8.636;2023-10-09T01:47:53;12.60;92.30
76099;DHT22;64828;49.956;8.636;2023-10-09T01:48:13;12.60;92.30
76099;DHT22;64828;49.956;8.636;2023-10-09T01:48:30;12.60;92.30
76099;DHT22;64828;49.956;8.636;2023-10-09T01:48:49;12.60;92.30
76099;DHT22;64828;49.956;8.636;2023-10-09T01:49:04;12.60;92.30
76099;DHT22;64828;49.956;8.636;2023-10-09T01:49:31;12.60;92.30
76099;DHT22;64828;49.956;8.636;2023-10-09T01:49:47;12.60;92.30
76099;DHT22;64828;49.956;8.636;2023-10-09T01:50:08;12.60;92.30
76099;DHT22;64828;49.956;8.636;2023-10-09T01:50:27;12.60;92.30
76099;DHT22;64828;49.956;8.636;2023-10-09T01:50:46;12.60;92.30
76099;DHT22;64828;49.956;8.636;2023-10-09T01:51:03;12.60;92.30
76099;DHT22;64828;49.956;8.636;2023-10-09T01:51:20;12.60;92.30
76099;DHT22;64828;49.956;8.636;2023-10-09T01:51:36;12.60;92.30
76099;DHT22;64828;49.956;8.636;2023-10-09T01:51:53;12.60;92.30
76099;DHT22;64828;49.956;8.636;2023-10-09T01:52:12;12.60;92.20
76099;DHT22;64828;49.956;8.636;2023-10-09T01:52:31;12.60;92.30
76099;DHT22;64828;49.956;8.636;2023-10-09T01:52:47;12.60;92.20
76099;DHT22;64828;49.956;8.636;2023-10-09T01:53:03;12.60;92.20
76099;DHT22;64828;49.956;8.636;2023-10-09T01:53:21;12.60;92.20
76099;DHT22;64828;49.956;8.636;2023-10-09T01:53:40;12.60;92.20
76099;DHT22;64828;49.956;8.636;2023-10-09T01:53:57;12.60;92.20
76099;DHT22;64828;49.956;8.636;2023-10-09T01:54:13;12.60;92.20
76099;DHT22;64828;49.956;8.636;2023-10-09T01:54:51;12.60;92.20
76099;DHT22;64828;49.956;8.636;2023-10-09T01:55:08;12.60;92.20
76099;DHT22;64828;49.956;8.636;2023-10-09T01:55:29;12.60;92.30
76099;DHT22;64828;49.956;8.636;2023-10-09T01:55:55;12.60;92.20
76099;DHT22;64828;49.956;8.636;2023-10-09T01:56:11;12.60;92.30
76099;DHT22;64828;49.956;8.636;2023-10-09T01:56:30;12.60;92.30
76099;DHT22;64828;49.956;8.636;2023-10-09T01:56:46;12.60;92.30
76099;DHT22;64828;49.956;8.636;2023-10-09T01:57:04;12.60;92.30
76099;DHT22;64828;49.956;8.636;2023-10-09T01:57:27;12.60;92.30
76099;DHT22;64828;49.956;8.636;2023-10-09T01:57:45;12.60;92.30
76099;DHT22;64828;49.956;8.636;2023-10-09T01:58:03;12.60;92.30
76099;DHT22;64828;49.956;8.636;2023-10-09T01:58:37;12.60;92.30
76099;DHT22;64828;49.956;8.636;2023-10-09T01:58:53;12.60;92.30
76099;DHT22;64828;49.956;8.636;2023-10-09T01:59:12;12.70;92.30
76099;DHT22;64828;49.956;8.636;2023-10-09T01:59:28;12.60;92.30
76099;DHT22;64828;49.956;8.636;2023-10-09T01:59:44;12.60;92.30
76099;DHT22;64828;49.956;8.636;2023-10-09T02:00:02;12.60;92.30
76099;DHT22;64828;49.956;8.636;2023-10-09T02:00:19;12.60;92.20
76099;DHT22;64828;49.956;8.636;2023-10-09T02:00:39;12.60;92.20
76099;DHT22;64828;49.956;8.636;2023-10-09T02:00:58;12.60;92.20
76099;DHT22;64828;49.956;8.636;2023-10-09T02:01:17;12.60;92.20
76099;DHT22;64828;49.956;8.636;2023-10-09T02:01:33;12.60;92.20
76099;DHT22;64828;49.956;8.636;2023-10-09T02:01:48;12.60;92.20
76099;DHT22;64828;49.956;8.636;2023-10-09T02:02:05;12.60;92.10
76099;DHT22;64828;49.956;8.636;2023-10-09T02:02:41;12.60;92.20
76099;DHT22;64828;49.956;8.636;2023-10-09T02:03:00;12.60;92.10
76099;DHT22;64828;49.956;8.636;2023-10-09T02:03:20;12.60;92.10
76099;DHT22;64828;49.956;8.636;2023-10-09T02:03:39;12.60;92.10
76099;DHT22;64828;49.956;8.636;2023-10-09T02:03:57;12.60;92.10
76099;DHT22;64828;49.956;8.636;2023-10-09T02:04:20;12.60;92.10
76099;DHT22;64828;49.956;8.636;2023-10-09T02:04:36;12.60;92.10
76099;DHT22;64828;49.956;8.636;2023-10-09T02:04:54;12.60;92.00
76099;DHT22;64828;49.956;8.636;2023-10-09T02:05:23;12.60;92.00
76099;DHT22;64828;49.956;8.636;2023-10-09T02:05:38;12.60;92.00
76099;DHT22;64828;49.956;8.636;2023-10-09T02:05:54;12.60;92.00
76099;DHT22;64828;49.956;8.636;2023-10-09T02:06:18;12.60;92.10
76099;DHT22;64828;49.956;8.636;2023-10-09T02:06:41;12.60;92.10
76099;DHT22;64828;49.956;8.636;2023-10-09T02:06:57;12.60;92.10
76099;DHT22;64828;49.956;8.636;2023-10-09T02:07:12;12.60;92.20
76099;DHT22;64828;49.956;8.636;2023-10-09T02:07:28;12.60;92.20
76099;DHT22;64828;49.956;8.636;2023-10-09T02:07:45;12.60;92.20
76099;DHT22;64828;49.956;8.636;2023-10-09T02:08:07;12.60;92.20
76099;DHT22;64828;49.956;8.636;2023-10-09T02:08:28;12.60;92.20
76099;DHT22;64828;49.956;8.636;2023-10-09T02:08:54;12.60;92.20
76099;DHT22;64828;49.956;8.636;2023-10-09T02:09:11;12.60;92.20